createdAt,value
2022-11-07T00:01:41.848Z,19.45
2022-11-07T00:04:08.894Z,23.63
2022-11-07T00:06:37.782Z,18.40
2022-11-07T00:09:05.064Z,19.20
2022-11-07T00:11:31.955Z,21.00
2022-11-07T00:13:58.866Z,22.27
2022-11-07T00:16:26.771Z,19.35
2022-11-07T00:18:53.840Z,16.83
2022-11-07T00:21:20.716Z,22.90
2022-11-07T00:23:47.582Z,20.48
2022-11-07T00:26:14.774Z,19.08
2022-11-07T00:28:42.698Z,16.33
2022-11-07T00:31:10.735Z,22.30
2022-11-07T00:33:37.792Z,20.30
2022-11-07T00:36:04.964Z,18.88
2022-11-07T00:38:31.927Z,19.42
2022-11-07T00:41:03.416Z,19.08
2022-11-07T00:43:30.716Z,19.33
2022-11-07T00:45:57.777Z,14.25
2022-11-07T00:48:24.984Z,17.67
2022-11-07T00:50:51.946Z,18.17
2022-11-07T00:53:18.878Z,20.75
2022-11-07T00:55:45.926Z,19.42
2022-11-07T00:58:14.410Z,17.90
2022-11-07T01:00:42.018Z,16.98
2022-11-07T01:03:27.679Z,19.73
2022-11-07T01:05:58.523Z,15.00
2022-11-07T01:08:25.838Z,14.60
2022-11-07T01:10:52.788Z,15.43
2022-11-07T01:13:19.680Z,15.38
2022-11-07T01:15:46.783Z,18.15
2022-11-07T01:18:13.728Z,15.68
2022-11-07T01:20:41.213Z,17.45
2022-11-07T01:23:08.541Z,18.08
2022-11-07T01:25:39.011Z,17.42
2022-11-07T01:28:06.375Z,16.75
2022-11-07T01:30:33.568Z,18.77
2022-11-07T01:33:00.737Z,15.52
2022-11-07T01:35:27.764Z,18.42
2022-11-07T01:37:54.656Z,14.15
2022-11-07T01:40:21.633Z,17.25
2022-11-07T01:42:48.759Z,17.70
2022-11-07T01:45:23.694Z,18.33
2022-11-07T01:47:50.550Z,17.23
2022-11-07T01:50:17.470Z,14.38
2022-11-07T01:52:45.007Z,19.95
2022-11-07T01:55:26.786Z,20.65
2022-11-07T01:58:05.010Z,20.15
2022-11-07T02:00:31.895Z,15.05
2022-11-07T02:03:06.189Z,16.67
2022-11-07T02:05:35.779Z,15.32
2022-11-07T02:08:04.298Z,20.05
2022-11-07T02:10:31.356Z,18.05
2022-11-07T02:12:58.274Z,18.55
2022-11-07T02:15:26.297Z,21.08
2022-11-07T02:17:53.364Z,14.98
2022-11-07T02:20:20.251Z,18.25
2022-11-07T02:22:49.920Z,21.75
2022-11-07T02:25:17.807Z,15.20
2022-11-07T02:27:44.878Z,20.25
2022-11-07T02:30:22.032Z,16.48
2022-11-07T02:32:48.942Z,16.58
2022-11-07T02:35:40.382Z,18.85
2022-11-07T02:38:14.243Z,16.40
2022-11-07T02:40:41.521Z,16.27
2022-11-07T02:43:09.512Z,12.60
2022-11-07T02:45:37.485Z,17.13
2022-11-07T02:48:04.643Z,15.07
2022-11-07T02:50:31.987Z,15.25
2022-11-07T02:52:58.919Z,17.77
2022-11-07T02:55:26.035Z,16.42
2022-11-07T02:57:52.967Z,21.27
2022-11-07T03:00:20.188Z,16.65
2022-11-07T03:02:47.544Z,17.02
2022-11-07T03:05:18.907Z,17.52
2022-11-07T03:07:46.967Z,21.15
2022-11-07T03:10:14.687Z,13.13
2022-11-07T03:12:41.593Z,17.65
2022-11-07T03:15:09.312Z,18.48
2022-11-07T03:17:36.203Z,16.63
2022-11-07T03:20:03.994Z,18.63
2022-11-07T03:22:30.913Z,14.10
2022-11-07T03:24:57.770Z,15.73
2022-11-07T03:27:24.706Z,16.25
2022-11-07T03:29:51.593Z,15.25
2022-11-07T03:32:18.530Z,17.52
2022-11-07T03:34:45.624Z,14.98
2022-11-07T03:37:12.733Z,14.32
2022-11-07T03:39:39.624Z,16.20
2022-11-07T03:42:06.515Z,20.35
2022-11-07T03:44:33.420Z,16.83
2022-11-07T03:47:00.387Z,19.27
2022-11-07T03:49:27.360Z,17.40
2022-11-07T03:51:54.335Z,14.70
2022-11-07T03:54:21.206Z,17.85
2022-11-07T03:56:48.130Z,15.05
2022-11-07T03:59:15.054Z,21.60
2022-11-07T04:01:42.013Z,19.13
2022-11-07T04:04:09.311Z,16.67
2022-11-07T04:06:36.178Z,17.23
2022-11-07T04:09:03.329Z,16.33
2022-11-07T04:11:48.718Z,19.58
2022-11-07T04:14:34.226Z,17.17
2022-11-07T04:17:26.922Z,20.33
2022-11-07T04:19:57.596Z,19.33
2022-11-07T04:22:24.750Z,21.27
2022-11-07T04:24:51.667Z,18.23
2022-11-07T04:27:37.578Z,14.52
2022-11-07T04:30:28.389Z,17.60
2022-11-07T04:32:56.559Z,18.25
2022-11-07T04:35:25.144Z,19.63
2022-11-07T04:37:52.186Z,23.05
2022-11-07T04:40:19.859Z,16.42
2022-11-07T04:42:47.061Z,19.85
2022-11-07T04:45:14.147Z,19.23
2022-11-07T04:47:41.154Z,24.10
2022-11-07T04:50:11.941Z,23.75
2022-11-07T04:52:38.871Z,20.13
2022-11-07T04:55:07.296Z,21.42
2022-11-07T04:57:34.244Z,20.52
2022-11-07T05:00:01.203Z,22.92
2022-11-07T05:02:28.232Z,20.48
2022-11-07T05:04:55.301Z,16.70
2022-11-07T05:07:22.244Z,18.05
2022-11-07T05:09:49.294Z,17.48
2022-11-07T05:12:16.684Z,19.13
2022-11-07T05:14:43.587Z,18.73
2022-11-07T05:17:13.497Z,20.23
2022-11-07T05:19:43.167Z,17.98
2022-11-07T05:22:29.372Z,16.35
2022-11-07T05:24:56.404Z,19.45
2022-11-07T05:27:23.675Z,15.93
2022-11-07T05:29:50.793Z,16.70
2022-11-07T05:32:18.114Z,21.20
2022-11-07T05:34:45.002Z,21.33
2022-11-07T05:37:12.455Z,22.85
2022-11-07T05:39:39.480Z,16.30
2022-11-07T05:42:06.468Z,22.10
2022-11-07T05:44:33.535Z,19.33
2022-11-07T05:47:01.192Z,18.90
2022-11-07T05:49:28.097Z,18.30
2022-11-07T05:51:55.171Z,15.85
2022-11-07T05:54:22.113Z,19.67
2022-11-07T05:56:49.048Z,15.60
2022-11-07T05:59:16.504Z,17.17
2022-11-07T06:01:44.796Z,17.65
2022-11-07T06:04:13.803Z,17.17
2022-11-07T06:06:40.769Z,20.20
2022-11-07T06:09:07.703Z,15.90
2022-11-07T06:11:34.920Z,16.80
2022-11-07T06:14:01.858Z,16.42
2022-11-07T06:16:28.942Z,19.73
2022-11-07T06:18:55.821Z,19.08
2022-11-07T06:21:22.763Z,17.83
2022-11-07T06:23:49.696Z,22.15
2022-11-07T06:26:16.652Z,18.15
2022-11-07T06:28:43.523Z,16.63
2022-11-07T06:31:10.428Z,17.42
2022-11-07T06:33:37.297Z,18.48
2022-11-07T06:36:08.725Z,17.58
2022-11-07T06:38:36.220Z,17.35
2022-11-07T06:41:10.956Z,18.77
2022-11-07T06:43:38.192Z,20.20
2022-11-07T06:46:07.273Z,22.58
2022-11-07T06:48:34.244Z,18.88
2022-11-07T06:51:02.371Z,17.80
2022-11-07T06:53:29.424Z,20.50
2022-11-07T06:55:56.605Z,17.48
2022-11-07T06:58:23.527Z,20.13
2022-11-07T07:00:50.470Z,19.98
2022-11-07T07:03:17.865Z,21.42
2022-11-07T07:05:45.100Z,19.55
2022-11-07T07:08:12.655Z,23.17
2022-11-07T07:10:43.766Z,18.48
2022-11-07T07:13:11.081Z,20.83
2022-11-07T07:15:50.300Z,19.35
2022-11-07T07:18:19.164Z,26.42
2022-11-07T07:20:46.925Z,22.50
2022-11-07T07:23:14.093Z,27.10
2022-11-07T07:25:41.581Z,18.80
2022-11-07T07:28:08.543Z,18.25
2022-11-07T07:30:35.417Z,19.27
2022-11-07T07:33:02.337Z,19.13
2022-11-07T07:35:29.480Z,22.08
2022-11-07T07:37:56.794Z,20.55
2022-11-07T07:40:23.706Z,16.00
2022-11-07T07:42:50.828Z,19.23
2022-11-07T07:45:17.869Z,19.63
2022-11-07T07:47:44.778Z,18.45
2022-11-07T07:50:12.478Z,17.08
2022-11-07T07:52:39.546Z,18.70
2022-11-07T07:55:09.123Z,18.55
2022-11-07T07:57:42.998Z,17.42
2022-11-07T08:00:11.445Z,18.10
2022-11-07T08:02:44.218Z,14.57
2022-11-07T08:05:14.659Z,14.07
2022-11-07T08:07:49.144Z,16.75
2022-11-07T08:10:40.277Z,17.98
2022-11-07T08:13:04.264Z,18.95
2022-11-07T08:15:31.109Z,15.48
2022-11-07T08:18:02.202Z,17.88
2022-11-07T08:20:29.303Z,19.98
2022-11-07T08:23:23.733Z,11.20
2022-11-07T08:25:58.238Z,16.88
2022-11-07T08:28:28.727Z,15.98
2022-11-07T08:31:04.901Z,17.27
2022-11-07T08:33:32.606Z,17.83
2022-11-07T08:36:00.540Z,18.48
2022-11-07T08:38:28.385Z,16.58
2022-11-07T08:40:55.358Z,15.20
2022-11-07T08:43:22.344Z,19.60
2022-11-07T08:45:49.609Z,16.27
2022-11-07T08:48:17.108Z,15.02
2022-11-07T08:50:44.419Z,15.90
2022-11-07T08:53:11.649Z,17.10
2022-11-07T08:55:38.656Z,16.20
2022-11-07T08:58:06.884Z,14.93
2022-11-07T09:00:34.615Z,12.68
2022-11-07T09:03:38.835Z,15.07
2022-11-07T09:05:56.574Z,12.45
2022-11-07T09:08:23.653Z,14.98
2022-11-07T09:10:50.762Z,14.27
2022-11-07T09:13:18.083Z,15.23
2022-11-07T09:15:50.661Z,13.15
2022-11-07T09:18:19.119Z,12.27
2022-11-07T09:20:46.037Z,11.68
2022-11-07T09:23:13.082Z,11.60
2022-11-07T09:25:40.291Z,14.82
2022-11-07T09:28:07.651Z,12.20
2022-11-07T09:30:36.357Z,14.63
2022-11-07T09:33:06.595Z,13.70
2022-11-07T09:35:33.593Z,13.35
2022-11-07T09:38:00.587Z,9.45
2022-11-07T09:40:48.176Z,14.55
2022-11-07T09:43:40.091Z,9.25
2022-11-07T09:46:12.497Z,12.32
2022-11-07T09:48:44.381Z,16.83
2022-11-07T09:51:15.531Z,13.18
2022-11-07T09:53:43.781Z,10.27
2022-11-07T09:56:11.944Z,14.00
2022-11-07T09:58:46.023Z,11.30
2022-11-07T10:01:17.704Z,11.65
2022-11-07T10:06:38.417Z,10.07
2022-11-07T10:09:28.629Z,12.90
2022-11-07T10:12:07.587Z,9.60
2022-11-07T10:15:12.165Z,13.05
2022-11-07T10:17:59.014Z,11.60
2022-11-07T10:21:36.456Z,10.68
2022-11-07T10:24:13.124Z,14.63
2022-11-07T10:26:40.733Z,11.05
2022-11-07T10:29:10.767Z,16.15
2022-11-07T10:31:40.533Z,11.57
2022-11-07T10:34:29.513Z,13.05
2022-11-07T10:36:56.456Z,12.40
2022-11-07T10:39:23.618Z,16.27
2022-11-07T10:42:01.075Z,13.73
2022-11-07T10:44:28.193Z,15.45
2022-11-07T10:46:55.174Z,18.85
2022-11-07T10:49:23.982Z,13.50
2022-11-07T10:51:51.261Z,15.13
2022-11-07T10:54:30.361Z,13.32
2022-11-07T10:57:06.234Z,13.40
2022-11-07T10:59:36.434Z,17.55
2022-11-07T11:02:11.151Z,17.30
2022-11-07T11:04:38.240Z,14.32
2022-11-07T11:07:06.578Z,12.43
2022-11-07T11:09:35.723Z,11.60
2022-11-07T11:12:06.986Z,13.38
2022-11-07T11:14:34.140Z,14.70
2022-11-07T11:17:01.076Z,14.38
2022-11-07T11:19:34.173Z,12.27
2022-11-07T11:22:03.792Z,15.63
2022-11-07T11:24:37.587Z,14.18
2022-11-07T11:27:17.276Z,12.07
2022-11-07T11:30:11.938Z,12.77
2022-11-07T11:32:49.213Z,13.35
2022-11-07T11:35:21.915Z,14.82
2022-11-07T11:37:53.607Z,17.10
2022-11-07T11:40:22.419Z,11.10
2022-11-07T11:43:04.290Z,22.45
2022-11-07T11:48:15.618Z,13.85
2022-11-07T11:50:48.586Z,14.93
2022-11-07T11:53:17.333Z,15.85
2022-11-07T11:55:55.409Z,14.13
2022-11-07T11:58:25.148Z,12.57
2022-11-07T12:01:04.583Z,11.80
2022-11-07T12:03:57.037Z,13.02
2022-11-07T12:06:46.984Z,9.60
2022-11-07T12:09:19.906Z,10.50
2022-11-07T12:11:51.527Z,11.20
2022-11-07T12:15:10.680Z,11.00
2022-11-07T12:17:42.748Z,11.95
2022-11-07T12:20:18.297Z,12.70
2022-11-07T12:23:07.005Z,10.23
2022-11-07T12:25:55.087Z,10.88
2022-11-07T12:28:44.441Z,10.15
2022-11-07T12:31:11.396Z,10.75
2022-11-07T12:33:55.466Z,13.52
2022-11-07T12:36:46.042Z,10.68
2022-11-07T12:39:47.118Z,10.55
2022-11-07T12:42:35.758Z,13.52
2022-11-07T12:45:24.804Z,15.23
2022-11-07T12:48:12.901Z,15.02
2022-11-07T12:50:43.130Z,13.73
2022-11-07T12:53:39.473Z,16.40
2022-11-07T12:56:11.945Z,14.68
2022-11-07T12:58:38.925Z,17.70
2022-11-07T13:01:05.990Z,14.15
2022-11-07T13:03:39.128Z,17.58
2022-11-07T13:06:13.708Z,14.13
2022-11-07T13:08:49.022Z,13.70
2022-11-07T13:11:21.284Z,20.38
2022-11-07T13:14:27.498Z,15.15
2022-11-07T13:17:24.308Z,12.57
2022-11-07T13:20:00.572Z,13.02
2022-11-07T13:22:35.980Z,13.38
2022-11-07T13:25:29.445Z,15.43
2022-11-07T13:27:56.427Z,16.52
2022-11-07T13:30:40.238Z,18.55
2022-11-07T13:33:23.334Z,15.57
2022-11-07T13:35:54.896Z,16.15
2022-11-07T13:38:23.587Z,18.15
2022-11-07T13:41:04.250Z,14.60
2022-11-07T13:43:58.891Z,16.90
2022-11-07T13:46:36.248Z,12.82
2022-11-07T13:49:24.871Z,16.60
2022-11-07T13:51:52.881Z,16.92
2022-11-07T13:54:28.651Z,15.80
2022-11-07T13:57:23.921Z,20.90
2022-11-07T14:00:07.318Z,18.23
2022-11-07T14:02:51.445Z,15.13
2022-11-07T14:05:18.986Z,19.38
2022-11-07T14:07:51.334Z,14.70
2022-11-07T14:10:28.265Z,15.80
2022-11-07T14:13:09.398Z,14.30
2022-11-07T14:15:36.890Z,12.90
2022-11-07T14:18:04.368Z,17.08
2022-11-07T14:20:31.351Z,16.67
2022-11-07T14:23:00.715Z,15.98
2022-11-07T14:25:35.423Z,19.40
2022-11-07T14:28:02.544Z,18.90
2022-11-07T14:30:30.033Z,16.27
2022-11-07T14:32:59.349Z,16.45
2022-11-07T14:35:32.216Z,20.42
2022-11-07T14:38:08.239Z,17.48
2022-11-07T14:40:36.176Z,18.20
2022-11-07T14:43:03.254Z,19.92
2022-11-07T14:46:05.621Z,14.45
2022-11-07T14:48:19.332Z,20.65
2022-11-07T14:50:49.097Z,20.35
2022-11-07T14:53:24.681Z,22.38
2022-11-07T14:55:53.789Z,16.85
2022-11-07T14:58:23.750Z,20.83
2022-11-07T15:00:56.139Z,22.15
2022-11-07T15:03:30.031Z,16.13
2022-11-07T15:05:57.061Z,20.42
2022-11-07T15:08:29.235Z,20.20
2022-11-07T15:11:14.389Z,19.70
2022-11-07T15:13:41.539Z,22.52
2022-11-07T15:16:18.547Z,24.40
2022-11-07T15:18:47.480Z,19.95
2022-11-07T15:21:26.694Z,18.98
2022-11-07T15:23:54.680Z,18.33
2022-11-07T15:26:23.345Z,18.52
2022-11-07T15:28:53.727Z,16.83
2022-11-07T15:31:21.786Z,20.15
2022-11-07T15:33:49.027Z,21.67
2022-11-07T15:36:18.085Z,19.48
2022-11-07T15:38:46.481Z,18.70
2022-11-07T15:41:14.120Z,19.10
2022-11-07T15:43:41.024Z,19.85
2022-11-07T15:46:46.383Z,17.70
2022-11-07T15:49:13.402Z,16.63
2022-11-07T15:51:40.396Z,20.65
2022-11-07T15:54:11.656Z,19.85
2022-11-07T15:56:39.158Z,19.30
2022-11-07T15:59:08.818Z,20.88
2022-11-07T16:01:35.953Z,16.27
2022-11-07T16:04:03.342Z,14.93
2022-11-07T16:06:30.944Z,17.45
2022-11-07T16:08:58.311Z,13.60
2022-11-07T16:11:25.258Z,19.55
2022-11-07T16:13:59.250Z,15.25
2022-11-07T16:16:36.088Z,13.63
2022-11-07T16:19:03.036Z,12.80
2022-11-07T16:21:30.043Z,15.27
2022-11-07T16:23:56.978Z,14.45
2022-11-07T16:26:28.824Z,15.15
2022-11-07T16:31:22.817Z,14.93
2022-11-07T16:33:49.857Z,13.38
2022-11-07T16:36:21.084Z,15.70
2022-11-07T16:38:48.658Z,15.00
2022-11-07T16:41:17.742Z,11.00
2022-11-07T16:43:45.440Z,12.63
2022-11-07T16:46:18.842Z,13.48
2022-11-07T16:48:50.321Z,13.88
2022-11-07T16:51:23.582Z,16.65
2022-11-07T16:54:02.328Z,13.20
2022-11-07T16:56:30.498Z,13.57
2022-11-07T16:58:58.241Z,11.68
2022-11-07T17:01:25.913Z,15.73
2022-11-07T17:03:53.374Z,13.85
2022-11-07T17:06:34.180Z,14.80
2022-11-07T17:09:10.359Z,13.68
2022-11-07T17:11:40.326Z,14.77
2022-11-07T17:14:07.238Z,15.23
2022-11-07T17:16:34.931Z,13.93
2022-11-07T17:19:02.298Z,15.27
2022-11-07T17:21:31.043Z,15.25
2022-11-07T17:23:59.159Z,13.90
2022-11-07T17:26:36.971Z,16.27
2022-11-07T17:29:07.677Z,14.52
2022-11-07T17:31:34.922Z,14.88
2022-11-07T17:34:01.800Z,16.08
2022-11-07T17:36:47.873Z,15.43
2022-11-07T17:39:16.657Z,15.98
2022-11-07T17:41:44.477Z,16.10
2022-11-07T17:44:11.450Z,15.43
2022-11-07T17:46:42.265Z,19.77
2022-11-07T17:49:10.886Z,14.10
2022-11-07T17:51:37.991Z,15.30
2022-11-07T17:54:05.151Z,15.77
2022-11-07T17:56:32.452Z,15.13
2022-11-07T17:59:01.306Z,17.67
2022-11-07T18:01:30.459Z,16.92
2022-11-07T18:03:58.045Z,15.43
2022-11-07T18:06:25.244Z,14.13
2022-11-07T18:08:53.357Z,12.90
2022-11-07T18:11:21.510Z,14.05
2022-11-07T18:13:51.961Z,18.88
2022-11-07T18:16:20.786Z,17.65
2022-11-07T18:18:47.736Z,14.70
2022-11-07T18:21:14.833Z,19.35
2022-11-07T18:23:42.104Z,16.20
2022-11-07T18:26:11.117Z,14.63
2022-11-07T18:28:38.898Z,20.00
2022-11-07T18:31:10.746Z,19.70
2022-11-07T18:33:37.767Z,17.45
2022-11-07T18:36:06.704Z,19.92
2022-11-07T18:38:33.602Z,17.48
2022-11-07T18:41:02.732Z,20.85
2022-11-07T18:43:29.855Z,15.70
2022-11-07T18:45:58.536Z,17.95
2022-11-07T18:48:25.906Z,17.65
2022-11-07T18:50:52.808Z,19.00
2022-11-07T18:53:20.432Z,16.70
2022-11-07T18:55:59.195Z,21.30
2022-11-07T18:58:28.190Z,14.75
2022-11-07T19:00:55.483Z,18.58
2022-11-07T19:03:23.632Z,12.27
2022-11-07T19:05:53.543Z,15.13
2022-11-07T19:08:21.891Z,13.98
2022-11-07T19:10:52.105Z,15.27
2022-11-07T19:13:21.211Z,17.02
2022-11-07T19:15:49.389Z,15.75
2022-11-07T19:18:18.412Z,13.98
2022-11-07T19:20:46.181Z,16.67
2022-11-07T19:23:13.651Z,13.10
2022-11-07T19:25:41.273Z,13.95
2022-11-07T19:28:08.470Z,19.17
2022-11-07T19:30:36.051Z,16.15
2022-11-07T19:33:03.641Z,16.40
2022-11-07T19:35:31.594Z,16.23
2022-11-07T19:37:58.845Z,13.40
2022-11-07T19:40:26.221Z,19.20
2022-11-07T19:42:53.328Z,15.38
2022-11-07T19:45:20.726Z,14.40
2022-11-07T19:47:47.902Z,17.17
2022-11-07T19:50:15.752Z,16.75
2022-11-07T19:52:42.788Z,14.60
2022-11-07T19:55:09.971Z,22.33
2022-11-07T19:57:36.888Z,16.38
2022-11-07T20:00:05.895Z,13.63
2022-11-07T20:02:36.406Z,18.88
2022-11-07T20:05:06.547Z,16.27
2022-11-07T20:07:33.888Z,17.92
2022-11-07T20:10:01.855Z,15.68
2022-11-07T20:12:28.780Z,14.23
2022-11-07T20:14:55.760Z,18.58
2022-11-07T20:17:22.713Z,15.05
2022-11-07T20:19:49.898Z,14.52
2022-11-07T20:22:16.810Z,15.60
2022-11-07T20:24:43.749Z,16.48
2022-11-07T20:27:10.701Z,12.68
2022-11-07T20:29:37.595Z,15.45
2022-11-07T20:32:05.057Z,17.85
2022-11-07T20:34:32.036Z,15.07
2022-11-07T20:36:59.126Z,16.00
2022-11-07T20:39:26.491Z,18.10
2022-11-07T20:41:54.026Z,14.75
2022-11-07T20:44:23.072Z,16.15
2022-11-07T20:46:51.791Z,13.52
2022-11-07T20:49:19.436Z,14.05
2022-11-07T20:51:46.441Z,14.65
2022-11-07T20:54:14.601Z,15.63
2022-11-07T20:56:41.896Z,13.52
2022-11-07T20:59:09.716Z,15.32
2022-11-07T21:01:37.422Z,15.88
2022-11-07T21:04:09.214Z,12.38
2022-11-07T21:06:36.149Z,15.63
2022-11-07T21:09:03.313Z,11.13
2022-11-07T21:11:30.701Z,13.57
2022-11-07T21:13:57.839Z,14.32
2022-11-07T21:16:25.159Z,15.45
2022-11-07T21:18:52.371Z,16.27
2022-11-07T21:21:24.226Z,14.70
2022-11-07T21:26:23.888Z,16.52
2022-11-07T21:28:50.887Z,11.75
2022-11-07T21:31:21.908Z,14.23
2022-11-07T21:33:48.880Z,12.68
2022-11-07T21:36:18.138Z,12.25
2022-11-07T21:38:46.852Z,14.82
2022-11-07T21:41:14.739Z,14.30
2022-11-07T21:43:41.765Z,13.38
2022-11-07T21:46:10.580Z,12.50
2022-11-07T21:48:37.837Z,13.13
2022-11-07T21:51:09.171Z,12.75
2022-11-07T21:53:37.951Z,13.10
2022-11-07T21:56:06.329Z,12.13
2022-11-07T21:58:33.636Z,11.43
2022-11-07T22:01:05.153Z,14.57
2022-11-07T22:04:03.648Z,15.05
2022-11-07T22:06:20.340Z,12.93
2022-11-07T22:08:48.309Z,14.77
2022-11-07T22:11:16.033Z,11.70
2022-11-07T22:13:43.229Z,13.02
2022-11-07T22:16:14.610Z,13.70
2022-11-07T22:18:41.836Z,12.90
2022-11-07T22:21:09.863Z,14.02
2022-11-07T22:23:37.911Z,15.15
2022-11-07T22:26:11.951Z,14.50
2022-11-07T22:28:44.390Z,10.82
2022-11-07T22:31:20.839Z,11.75
2022-11-07T22:33:48.073Z,12.50
2022-11-07T22:36:15.301Z,10.50
2022-11-07T22:38:42.415Z,12.20
2022-11-07T22:41:14.383Z,12.13
2022-11-07T22:43:41.444Z,15.68
2022-11-07T22:46:10.908Z,11.85
2022-11-07T22:48:38.107Z,11.80
2022-11-07T22:51:05.967Z,13.77
2022-11-07T22:53:33.485Z,10.13
2022-11-07T22:56:10.012Z,10.27
2022-11-07T22:58:37.268Z,9.48
2022-11-07T23:01:04.978Z,13.00
2022-11-07T23:03:32.816Z,12.70
2022-11-07T23:06:05.922Z,10.50
2022-11-07T23:08:36.293Z,11.10
2022-11-07T23:11:44.090Z,11.20
2022-11-07T23:13:53.529Z,12.70
2022-11-07T23:16:43.639Z,10.43
2022-11-07T23:19:12.916Z,10.60
2022-11-07T23:21:39.995Z,11.15
2022-11-07T23:24:07.122Z,8.80
2022-11-07T23:26:34.386Z,10.77
2022-11-07T23:29:11.447Z,9.63
2022-11-07T23:31:39.782Z,9.82
2022-11-07T23:34:06.862Z,12.07
2022-11-07T23:36:33.798Z,7.43
2022-11-07T23:39:07.577Z,11.32
2022-11-07T23:41:34.552Z,10.40
2022-11-07T23:44:01.967Z,11.40
2022-11-07T23:46:47.773Z,8.82
2022-11-07T23:49:33.161Z,11.70
2022-11-07T23:52:00.188Z,10.63
2022-11-07T23:54:45.710Z,11.77
2022-11-07T23:57:12.724Z,11.35
2022-11-07T23:59:58.611Z,12.57
